sensor_id;sensor_type;location;lat;lon;timestamp;P1;durP1;ratioP1;P2;durP2;ratioP2
17983;SDS011;9117;52.420;20.728;2022-08-19T00:01:51;17.55;;;13.57;;
17983;SDS011;9117;52.420;20.728;2022-08-19T00:04:21;22.50;;;14.80;;
17983;SDS011;9117;52.420;20.728;2022-08-19T00:06:53;19.90;;;14.07;;
17983;SDS011;9117;52.420;20.728;2022-08-19T00:09:22;20.60;;;14.90;;
17983;SDS011;9117;52.420;20.728;2022-08-19T00:11:51;19.60;;;14.23;;
17983;SDS011;9117;52.420;20.728;2022-08-19T00:14:22;22.00;;;14.98;;
17983;SDS011;9117;52.420;20.728;2022-08-19T00:16:52;21.60;;;14.32;;
17983;SDS011;9117;52.420;20.728;2022-08-19T00:19:21;19.83;;;15.25;;
17983;SDS011;9117;52.420;20.728;2022-08-19T00:21:50;19.58;;;15.05;;
17983;SDS011;9117;52.420;20.728;2022-08-19T00:24:22;18.13;;;14.43;;
17983;SDS011;9117;52.420;20.728;2022-08-19T00:26:51;19.50;;;15.30;;
17983;SDS011;9117;52.420;20.728;2022-08-19T00:29:20;21.00;;;15.18;;
17983;SDS011;9117;52.420;20.728;2022-08-19T00:31:49;24.33;;;14.70;;
17983;SDS011;9117;52.420;20.728;2022-08-19T00:34:19;22.90;;;14.52;;
17983;SDS011;9117;52.420;20.728;2022-08-19T00:36:48;22.98;;;13.80;;
17983;SDS011;9117;52.420;20.728;2022-08-19T00:39:17;22.23;;;15.50;;
17983;SDS011;9117;52.420;20.728;2022-08-19T00:41:46;24.08;;;14.60;;
17983;SDS011;9117;52.420;20.728;2022-08-19T00:44:17;19.45;;;13.93;;
17983;SDS011;9117;52.420;20.728;2022-08-19T00:46:53;24.17;;;14.93;;
17983;SDS011;9117;52.420;20.728;2022-08-19T00:49:24;23.30;;;15.63;;
17983;SDS011;9117;52.420;20.728;2022-08-19T00:51:58;22.38;;;14.38;;
17983;SDS011;9117;52.420;20.728;2022-08-19T00:54:30;22.20;;;14.60;;
17983;SDS011;9117;52.420;20.728;2022-08-19T00:56:59;24.25;;;14.45;;
17983;SDS011;9117;52.420;20.728;2022-08-19T00:59:32;22.65;;;15.48;;
17983;SDS011;9117;52.420;20.728;2022-08-19T01:02:23;23.13;;;15.15;;
17983;SDS011;9117;52.420;20.728;2022-08-19T01:04:52;20.75;;;15.07;;
17983;SDS011;9117;52.420;20.728;2022-08-19T01:07:21;22.85;;;14.05;;
17983;SDS011;9117;52.420;20.728;2022-08-19T01:09:51;22.35;;;15.32;;
17983;SDS011;9117;52.420;20.728;2022-08-19T01:12:19;21.65;;;14.32;;
17983;SDS011;9117;52.420;20.728;2022-08-19T01:14:48;21.17;;;15.32;;
17983;SDS011;9117;52.420;20.728;2022-08-19T01:17:17;22.00;;;16.15;;
17983;SDS011;9117;52.420;20.728;2022-08-19T01:19:47;21.58;;;15.63;;
17983;SDS011;9117;52.420;20.728;2022-08-19T01:22:17;26.42;;;15.73;;
17983;SDS011;9117;52.420;20.728;2022-08-19T01:24:59;23.55;;;15.00;;
17983;SDS011;9117;52.420;20.728;2022-08-19T01:27:36;20.83;;;15.00;;
17983;SDS011;9117;52.420;20.728;2022-08-19T01:30:09;19.70;;;15.07;;
17983;SDS011;9117;52.420;20.728;2022-08-19T01:32:39;25.50;;;15.73;;
17983;SDS011;9117;52.420;20.728;2022-08-19T01:35:08;20.90;;;15.48;;
17983;SDS011;9117;52.420;20.728;2022-08-19T01:37:42;26.80;;;15.07;;
17983;SDS011;9117;52.420;20.728;2022-08-19T01:40:12;20.67;;;14.60;;
17983;SDS011;9117;52.420;20.728;2022-08-19T01:42:41;23.13;;;14.60;;
17983;SDS011;9117;52.420;20.728;2022-08-19T01:45:09;23.70;;;14.75;;
17983;SDS011;9117;52.420;20.728;2022-08-19T01:47:38;21.63;;;14.77;;
17983;SDS011;9117;52.420;20.728;2022-08-19T01:50:07;22.40;;;15.05;;
17983;SDS011;9117;52.420;20.728;2022-08-19T01:52:37;20.02;;;14.43;;
17983;SDS011;9117;52.420;20.728;2022-08-19T01:55:07;22.63;;;14.88;;
17983;SDS011;9117;52.420;20.728;2022-08-19T01:57:39;23.55;;;15.20;;
17983;SDS011;9117;52.420;20.728;2022-08-19T02:00:11;21.58;;;15.02;;
17983;SDS011;9117;52.420;20.728;2022-08-19T02:02:41;22.30;;;15.57;;
17983;SDS011;9117;52.420;20.728;2022-08-19T02:05:10;22.42;;;15.63;;
17983;SDS011;9117;52.420;20.728;2022-08-19T02:07:40;22.67;;;15.73;;
17983;SDS011;9117;52.420;20.728;2022-08-19T02:10:10;23.58;;;15.45;;
17983;SDS011;9117;52.420;20.728;2022-08-19T02:12:43;24.23;;;15.23;;
17983;SDS011;9117;52.420;20.728;2022-08-19T02:15:12;21.52;;;15.40;;
17983;SDS011;9117;52.420;20.728;2022-08-19T02:17:41;25.08;;;15.95;;
17983;SDS011;9117;52.420;20.728;2022-08-19T02:20:10;23.25;;;16.23;;
17983;SDS011;9117;52.420;20.728;2022-08-19T02:22:39;20.83;;;16.33;;
17983;SDS011;9117;52.420;20.728;2022-08-19T02:25:09;23.52;;;16.38;;
17983;SDS011;9117;52.420;20.728;2022-08-19T02:27:37;26.95;;;16.92;;
17983;SDS011;9117;52.420;20.728;2022-08-19T02:30:12;22.08;;;16.75;;
17983;SDS011;9117;52.420;20.728;2022-08-19T02:32:42;31.35;;;16.80;;
17983;SDS011;9117;52.420;20.728;2022-08-19T02:35:11;23.27;;;16.00;;
17983;SDS011;9117;52.420;20.728;2022-08-19T02:37:40;20.98;;;16.30;;
17983;SDS011;9117;52.420;20.728;2022-08-19T02:40:26;22.55;;;16.63;;
17983;SDS011;9117;52.420;20.728;2022-08-19T02:42:54;25.77;;;16.42;;
17983;SDS011;9117;52.420;20.728;2022-08-19T02:45:24;22.77;;;16.08;;
17983;SDS011;9117;52.420;20.728;2022-08-19T02:47:52;24.75;;;16.60;;
17983;SDS011;9117;52.420;20.728;2022-08-19T02:50:23;20.38;;;16.17;;
17983;SDS011;9117;52.420;20.728;2022-08-19T02:52:51;24.02;;;17.00;;
17983;SDS011;9117;52.420;20.728;2022-08-19T02:55:20;28.75;;;16.52;;
17983;SDS011;9117;52.420;20.728;2022-08-19T02:57:48;21.25;;;15.13;;
17983;SDS011;9117;52.420;20.728;2022-08-19T03:00:16;27.08;;;17.00;;
17983;SDS011;9117;52.420;20.728;2022-08-19T03:02:46;21.75;;;15.38;;
17983;SDS011;9117;52.420;20.728;2022-08-19T03:05:15;21.33;;;14.25;;
17983;SDS011;9117;52.420;20.728;2022-08-19T03:07:53;28.15;;;15.95;;
17983;SDS011;9117;52.420;20.728;2022-08-19T03:10:21;23.92;;;16.25;;
17983;SDS011;9117;52.420;20.728;2022-08-19T03:12:50;23.00;;;16.20;;
17983;SDS011;9117;52.420;20.728;2022-08-19T03:15:18;22.35;;;15.23;;
17983;SDS011;9117;52.420;20.728;2022-08-19T03:17:48;21.58;;;15.27;;
17983;SDS011;9117;52.420;20.728;2022-08-19T03:20:16;23.15;;;15.80;;
17983;SDS011;9117;52.420;20.728;2022-08-19T03:22:44;24.77;;;15.38;;
17983;SDS011;9117;52.420;20.728;2022-08-19T03:25:12;23.50;;;16.00;;
17983;SDS011;9117;52.420;20.728;2022-08-19T03:27:42;20.17;;;14.63;;
17983;SDS011;9117;52.420;20.728;2022-08-19T03:30:11;21.85;;;15.98;;
17983;SDS011;9117;52.420;20.728;2022-08-19T03:32:49;22.13;;;15.75;;
17983;SDS011;9117;52.420;20.728;2022-08-19T03:35:22;24.58;;;15.13;;
17983;SDS011;9117;52.420;20.728;2022-08-19T03:37:50;25.77;;;15.02;;
17983;SDS011;9117;52.420;20.728;2022-08-19T03:40:19;20.20;;;14.82;;
17983;SDS011;9117;52.420;20.728;2022-08-19T03:42:47;21.95;;;15.40;;
17983;SDS011;9117;52.420;20.728;2022-08-19T03:45:16;24.92;;;15.65;;
17983;SDS011;9117;52.420;20.728;2022-08-19T03:47:45;25.35;;;15.40;;
17983;SDS011;9117;52.420;20.728;2022-08-19T03:50:15;23.67;;;15.10;;
17983;SDS011;9117;52.420;20.728;2022-08-19T03:52:47;26.77;;;17.40;;
17983;SDS011;9117;52.420;20.728;2022-08-19T03:55:16;21.13;;;15.75;;
17983;SDS011;9117;52.420;20.728;2022-08-19T03:57:44;19.65;;;14.68;;
17983;SDS011;9117;52.420;20.728;2022-08-19T04:00:14;24.25;;;16.08;;
17983;SDS011;9117;52.420;20.728;2022-08-19T04:02:43;21.95;;;15.93;;
17983;SDS011;9117;52.420;20.728;2022-08-19T04:05:25;25.35;;;15.77;;
17983;SDS011;9117;52.420;20.728;2022-08-19T04:07:54;22.58;;;14.90;;
17983;SDS011;9117;52.420;20.728;2022-08-19T04:10:25;22.27;;;14.95;;
17983;SDS011;9117;52.420;20.728;2022-08-19T04:12:54;23.95;;;15.43;;
17983;SDS011;9117;52.420;20.728;2022-08-19T04:15:23;21.90;;;14.85;;
17983;SDS011;9117;52.420;20.728;2022-08-19T04:17:51;18.70;;;15.18;;
17983;SDS011;9117;52.420;20.728;2022-08-19T04:20:19;27.92;;;16.65;;
17983;SDS011;9117;52.420;20.728;2022-08-19T04:22:48;23.55;;;15.48;;
17983;SDS011;9117;52.420;20.728;2022-08-19T04:25:17;22.35;;;15.68;;
17983;SDS011;9117;52.420;20.728;2022-08-19T04:27:45;24.27;;;16.15;;
17983;SDS011;9117;52.420;20.728;2022-08-19T04:30:14;24.70;;;16.45;;
17983;SDS011;9117;52.420;20.728;2022-08-19T04:32:43;23.48;;;15.82;;
17983;SDS011;9117;52.420;20.728;2022-08-19T04:35:12;24.98;;;14.85;;
17983;SDS011;9117;52.420;20.728;2022-08-19T04:37:43;18.92;;;14.75;;
17983;SDS011;9117;52.420;20.728;2022-08-19T04:40:13;21.90;;;15.07;;
17983;SDS011;9117;52.420;20.728;2022-08-19T04:42:59;20.23;;;15.27;;
17983;SDS011;9117;52.420;20.728;2022-08-19T04:45:28;23.30;;;16.52;;
17983;SDS011;9117;52.420;20.728;2022-08-19T04:48:09;25.30;;;14.35;;
17983;SDS011;9117;52.420;20.728;2022-08-19T04:50:53;20.30;;;14.88;;
17983;SDS011;9117;52.420;20.728;2022-08-19T04:53:24;24.80;;;14.63;;
17983;SDS011;9117;52.420;20.728;2022-08-19T04:55:56;19.98;;;14.07;;
17983;SDS011;9117;52.420;20.728;2022-08-19T04:58:25;22.25;;;14.13;;
17983;SDS011;9117;52.420;20.728;2022-08-19T05:00:54;22.25;;;14.02;;
17983;SDS011;9117;52.420;20.728;2022-08-19T05:03:22;19.85;;;13.70;;
17983;SDS011;9117;52.420;20.728;2022-08-19T05:05:55;24.35;;;14.25;;
17983;SDS011;9117;52.420;20.728;2022-08-19T05:08:24;26.85;;;14.00;;
17983;SDS011;9117;52.420;20.728;2022-08-19T05:10:58;25.38;;;15.10;;
17983;SDS011;9117;52.420;20.728;2022-08-19T05:13:26;26.00;;;14.55;;
17983;SDS011;9117;52.420;20.728;2022-08-19T05:15:56;26.83;;;13.45;;
17983;SDS011;9117;52.420;20.728;2022-08-19T05:18:25;20.65;;;13.70;;
17983;SDS011;9117;52.420;20.728;2022-08-19T05:21:17;20.60;;;14.10;;
17983;SDS011;9117;52.420;20.728;2022-08-19T05:24:04;23.50;;;13.35;;
17983;SDS011;9117;52.420;20.728;2022-08-19T05:26:36;20.13;;;14.13;;
17983;SDS011;9117;52.420;20.728;2022-08-19T05:29:05;24.52;;;13.90;;
17983;SDS011;9117;52.420;20.728;2022-08-19T05:31:35;20.92;;;14.70;;
17983;SDS011;9117;52.420;20.728;2022-08-19T05:34:07;21.55;;;14.73;;
17983;SDS011;9117;52.420;20.728;2022-08-19T05:36:45;30.10;;;13.20;;
17983;SDS011;9117;52.420;20.728;2022-08-19T05:39:14;20.95;;;13.35;;
17983;SDS011;9117;52.420;20.728;2022-08-19T05:41:47;21.70;;;13.70;;
17983;SDS011;9117;52.420;20.728;2022-08-19T05:44:18;20.90;;;14.25;;
17983;SDS011;9117;52.420;20.728;2022-08-19T05:46:47;25.50;;;13.90;;
17983;SDS011;9117;52.420;20.728;2022-08-19T05:49:20;20.15;;;13.85;;
17983;SDS011;9117;52.420;20.728;2022-08-19T05:51:49;19.10;;;12.77;;
17983;SDS011;9117;52.420;20.728;2022-08-19T05:54:18;24.13;;;13.20;;
17983;SDS011;9117;52.420;20.728;2022-08-19T05:56:48;25.48;;;13.60;;
17983;SDS011;9117;52.420;20.728;2022-08-19T05:59:18;21.42;;;13.60;;
17983;SDS011;9117;52.420;20.728;2022-08-19T06:01:52;20.95;;;12.68;;
17983;SDS011;9117;52.420;20.728;2022-08-19T06:04:23;26.70;;;12.82;;
17983;SDS011;9117;52.420;20.728;2022-08-19T06:06:52;19.92;;;11.98;;
17983;SDS011;9117;52.420;20.728;2022-08-19T06:09:21;18.15;;;12.55;;
17983;SDS011;9117;52.420;20.728;2022-08-19T06:11:51;20.98;;;11.82;;
17983;SDS011;9117;52.420;20.728;2022-08-19T06:14:23;20.10;;;12.48;;
17983;SDS011;9117;52.420;20.728;2022-08-19T06:16:54;22.08;;;11.90;;
17983;SDS011;9117;52.420;20.728;2022-08-19T06:19:22;20.17;;;11.50;;
17983;SDS011;9117;52.420;20.728;2022-08-19T06:21:51;16.98;;;11.98;;
17983;SDS011;9117;52.420;20.728;2022-08-19T06:24:21;18.63;;;10.85;;
17983;SDS011;9117;52.420;20.728;2022-08-19T06:26:54;20.77;;;11.27;;
17983;SDS011;9117;52.420;20.728;2022-08-19T06:29:27;24.25;;;11.40;;
17983;SDS011;9117;52.420;20.728;2022-08-19T06:31:56;24.67;;;11.48;;
17983;SDS011;9117;52.420;20.728;2022-08-19T06:34:27;20.35;;;11.20;;
17983;SDS011;9117;52.420;20.728;2022-08-19T06:36:57;18.50;;;11.10;;
17983;SDS011;9117;52.420;20.728;2022-08-19T06:39:28;16.95;;;10.70;;
17983;SDS011;9117;52.420;20.728;2022-08-19T06:42:00;18.15;;;10.18;;
17983;SDS011;9117;52.420;20.728;2022-08-19T06:44:34;22.10;;;9.70;;
17983;SDS011;9117;52.420;20.728;2022-08-19T06:47:09;16.23;;;10.95;;
17983;SDS011;9117;52.420;20.728;2022-08-19T06:49:54;30.45;;;10.75;;
17983;SDS011;9117;52.420;20.728;2022-08-19T06:52:26;15.63;;;11.13;;
17983;SDS011;9117;52.420;20.728;2022-08-19T06:54:55;19.33;;;10.95;;
17983;SDS011;9117;52.420;20.728;2022-08-19T06:57:26;20.10;;;10.65;;
17983;SDS011;9117;52.420;20.728;2022-08-19T06:59:58;21.67;;;11.55;;
17983;SDS011;9117;52.420;20.728;2022-08-19T07:02:27;18.80;;;10.27;;
17983;SDS011;9117;52.420;20.728;2022-08-19T07:04:55;18.17;;;10.23;;
17983;SDS011;9117;52.420;20.728;2022-08-19T07:07:24;18.88;;;10.73;;
17983;SDS011;9117;52.420;20.728;2022-08-19T07:09:52;18.85;;;11.70;;
17983;SDS011;9117;52.420;20.728;2022-08-19T07:12:28;21.95;;;10.00;;
17983;SDS011;9117;52.420;20.728;2022-08-19T07:15:01;17.35;;;10.43;;
17983;SDS011;9117;52.420;20.728;2022-08-19T07:17:29;19.92;;;10.32;;
17983;SDS011;9117;52.420;20.728;2022-08-19T07:20:00;17.63;;;9.90;;
17983;SDS011;9117;52.420;20.728;2022-08-19T07:22:32;16.92;;;9.85;;
17983;SDS011;9117;52.420;20.728;2022-08-19T07:25:01;19.02;;;10.07;;
17983;SDS011;9117;52.420;20.728;2022-08-19T07:27:31;19.83;;;9.82;;
17983;SDS011;9117;52.420;20.728;2022-08-19T07:30:00;20.15;;;10.32;;
17983;SDS011;9117;52.420;20.728;2022-08-19T07:32:28;17.63;;;9.35;;
17983;SDS011;9117;52.420;20.728;2022-08-19T07:34:58;14.02;;;9.15;;
17983;SDS011;9117;52.420;20.728;2022-08-19T07:37:29;17.27;;;9.63;;
17983;SDS011;9117;52.420;20.728;2022-08-19T07:39:58;15.10;;;9.25;;
17983;SDS011;9117;52.420;20.728;2022-08-19T07:42:27;18.33;;;9.40;;
17983;SDS011;9117;52.420;20.728;2022-08-19T07:44:57;17.25;;;10.05;;
17983;SDS011;9117;52.420;20.728;2022-08-19T07:47:26;16.00;;;9.52;;
17983;SDS011;9117;52.420;20.728;2022-08-19T07:50:14;16.77;;;9.15;;
17983;SDS011;9117;52.420;20.728;2022-08-19T07:52:44;18.35;;;9.68;;
17983;SDS011;9117;52.420;20.728;2022-08-19T07:55:16;15.82;;;8.98;;
17983;SDS011;9117;52.420;20.728;2022-08-19T07:58:06;17.17;;;9.77;;
17983;SDS011;9117;52.420;20.728;2022-08-19T08:00:36;12.27;;;9.10;;
17983;SDS011;9117;52.420;20.728;2022-08-19T08:03:04;14.85;;;9.35;;
17983;SDS011;9117;52.420;20.728;2022-08-19T08:05:32;19.80;;;8.93;;
17983;SDS011;9117;52.420;20.728;2022-08-19T08:08:18;13.65;;;9.13;;
17983;SDS011;9117;52.420;20.728;2022-08-19T08:11:10;16.67;;;9.25;;
17983;SDS011;9117;52.420;20.728;2022-08-19T08:13:40;17.70;;;9.20;;
17983;SDS011;9117;52.420;20.728;2022-08-19T08:16:10;20.85;;;8.45;;
17983;SDS011;9117;52.420;20.728;2022-08-19T08:18:39;18.10;;;8.52;;
17983;SDS011;9117;52.420;20.728;2022-08-19T08:21:18;13.07;;;8.30;;
17983;SDS011;9117;52.420;20.728;2022-08-19T08:23:46;16.98;;;9.43;;
17983;SDS011;9117;52.420;20.728;2022-08-19T08:26:17;16.30;;;8.60;;
17983;SDS011;9117;52.420;20.728;2022-08-19T08:28:45;12.05;;;8.23;;
17983;SDS011;9117;52.420;20.728;2022-08-19T08:31:16;20.73;;;8.82;;
17983;SDS011;9117;52.420;20.728;2022-08-19T08:33:46;18.05;;;9.00;;
17983;SDS011;9117;52.420;20.728;2022-08-19T08:36:14;18.23;;;8.75;;
17983;SDS011;9117;52.420;20.728;2022-08-19T08:38:43;15.50;;;8.60;;
17983;SDS011;9117;52.420;20.728;2022-08-19T08:41:15;17.63;;;8.93;;
17983;SDS011;9117;52.420;20.728;2022-08-19T08:43:51;14.95;;;9.15;;
17983;SDS011;9117;52.420;20.728;2022-08-19T08:46:22;16.70;;;8.85;;
17983;SDS011;9117;52.420;20.728;2022-08-19T08:48:57;16.88;;;8.93;;
17983;SDS011;9117;52.420;20.728;2022-08-19T08:51:32;20.02;;;8.30;;
17983;SDS011;9117;52.420;20.728;2022-08-19T08:54:10;14.40;;;9.20;;
17983;SDS011;9117;52.420;20.728;2022-08-19T08:56:42;21.48;;;9.48;;
17983;SDS011;9117;52.420;20.728;2022-08-19T08:59:12;20.95;;;9.73;;
17983;SDS011;9117;52.420;20.728;2022-08-19T09:01:47;25.92;;;9.05;;
17983;SDS011;9117;52.420;20.728;2022-08-19T09:04:16;10.20;;;8.80;;
17983;SDS011;9117;52.420;20.728;2022-08-19T09:06:47;15.00;;;9.00;;
17983;SDS011;9117;52.420;20.728;2022-08-19T09:09:23;13.70;;;8.95;;
17983;SDS011;9117;52.420;20.728;2022-08-19T09:12:00;18.00;;;8.98;;
17983;SDS011;9117;52.420;20.728;2022-08-19T09:14:39;15.35;;;8.60;;
17983;SDS011;9117;52.420;20.728;2022-08-19T09:17:18;23.92;;;9.20;;
17983;SDS011;9117;52.420;20.728;2022-08-19T09:19:56;16.50;;;8.65;;
17983;SDS011;9117;52.420;20.728;2022-08-19T09:22:26;17.70;;;8.77;;
17983;SDS011;9117;52.420;20.728;2022-08-19T09:24:55;13.10;;;8.90;;
17983;SDS011;9117;52.420;20.728;2022-08-19T09:27:24;14.70;;;8.40;;
17983;SDS011;9117;52.420;20.728;2022-08-19T09:30:10;13.23;;;8.55;;
17983;SDS011;9117;52.420;20.728;2022-08-19T09:32:42;15.25;;;8.50;;
17983;SDS011;9117;52.420;20.728;2022-08-19T09:35:11;13.73;;;8.85;;
17983;SDS011;9117;52.420;20.728;2022-08-19T09:37:40;15.35;;;8.70;;
17983;SDS011;9117;52.420;20.728;2022-08-19T09:40:10;17.40;;;8.50;;
17983;SDS011;9117;52.420;20.728;2022-08-19T09:42:41;16.95;;;8.57;;
17983;SDS011;9117;52.420;20.728;2022-08-19T09:45:19;14.63;;;8.80;;
17983;SDS011;9117;52.420;20.728;2022-08-19T09:47:51;17.95;;;9.05;;
17983;SDS011;9117;52.420;20.728;2022-08-19T09:50:21;20.42;;;8.65;;
17983;SDS011;9117;52.420;20.728;2022-08-19T09:52:50;16.40;;;8.88;;
17983;SDS011;9117;52.420;20.728;2022-08-19T09:55:23;20.20;;;8.82;;
17983;SDS011;9117;52.420;20.728;2022-08-19T09:57:57;16.90;;;8.90;;
17983;SDS011;9117;52.420;20.728;2022-08-19T10:00:29;19.20;;;9.27;;
17983;SDS011;9117;52.420;20.728;2022-08-19T10:02:59;15.75;;;9.45;;
17983;SDS011;9117;52.420;20.728;2022-08-19T10:05:28;22.42;;;8.88;;
17983;SDS011;9117;52.420;20.728;2022-08-19T10:08:15;13.88;;;9.45;;
17983;SDS011;9117;52.420;20.728;2022-08-19T10:10:46;15.82;;;9.20;;
17983;SDS011;9117;52.420;20.728;2022-08-19T10:13:15;17.98;;;8.77;;
17983;SDS011;9117;52.420;20.728;2022-08-19T10:15:48;16.83;;;10.02;;
17983;SDS011;9117;52.420;20.728;2022-08-19T10:18:19;19.88;;;9.68;;
17983;SDS011;9117;52.420;20.728;2022-08-19T10:20:48;18.48;;;9.57;;
17983;SDS011;9117;52.420;20.728;2022-08-19T10:23:19;17.90;;;9.55;;
17983;SDS011;9117;52.420;20.728;2022-08-19T10:25:48;14.88;;;8.73;;
17983;SDS011;9117;52.420;20.728;2022-08-19T10:28:17;14.43;;;8.65;;
17983;SDS011;9117;52.420;20.728;2022-08-19T10:30:46;14.70;;;8.63;;
17983;SDS011;9117;52.420;20.728;2022-08-19T10:33:14;17.42;;;8.10;;
17983;SDS011;9117;52.420;20.728;2022-08-19T10:36:05;17.83;;;8.38;;
17983;SDS011;9117;52.420;20.728;2022-08-19T10:38:35;12.80;;;7.40;;
17983;SDS011;9117;52.420;20.728;2022-08-19T10:41:07;13.85;;;7.75;;
17983;SDS011;9117;52.420;20.728;2022-08-19T10:43:37;15.48;;;7.97;;
17983;SDS011;9117;52.420;20.728;2022-08-19T10:46:06;16.92;;;7.32;;
17983;SDS011;9117;52.420;20.728;2022-08-19T10:48:41;15.63;;;7.30;;
17983;SDS011;9117;52.420;20.728;2022-08-19T10:51:11;14.70;;;7.70;;
17983;SDS011;9117;52.420;20.728;2022-08-19T10:53:57;14.00;;;7.80;;
17983;SDS011;9117;52.420;20.728;2022-08-19T10:56:26;15.63;;;7.35;;
17983;SDS011;9117;52.420;20.728;2022-08-19T10:59:13;12.93;;;7.30;;
17983;SDS011;9117;52.420;20.728;2022-08-19T11:01:42;13.05;;;7.55;;
17983;SDS011;9117;52.420;20.728;2022-08-19T11:04:11;12.10;;;7.28;;
17983;SDS011;9117;52.420;20.728;2022-08-19T11:06:41;12.50;;;8.30;;
17983;SDS011;9117;52.420;20.728;2022-08-19T11:09:11;12.85;;;7.45;;
17983;SDS011;9117;52.420;20.728;2022-08-19T11:11:40;9.55;;;7.10;;
17983;SDS011;9117;52.420;20.728;2022-08-19T11:14:08;12.98;;;7.45;;
17983;SDS011;9117;52.420;20.728;2022-08-19T11:16:39;13.43;;;6.85;;
17983;SDS011;9117;52.420;20.728;2022-08-19T11:19:08;11.98;;;6.68;;
17983;SDS011;9117;52.420;20.728;2022-08-19T11:21:38;17.48;;;6.88;;
17983;SDS011;9117;52.420;20.728;2022-08-19T11:24:14;13.85;;;7.18;;
17983;SDS011;9117;52.420;20.728;2022-08-19T11:26:43;19.20;;;7.18;;
17983;SDS011;9117;52.420;20.728;2022-08-19T11:29:12;14.48;;;6.28;;
17983;SDS011;9117;52.420;20.728;2022-08-19T11:31:44;11.38;;;7.25;;
17983;SDS011;9117;52.420;20.728;2022-08-19T11:34:15;16.70;;;7.22;;
17983;SDS011;9117;52.420;20.728;2022-08-19T11:36:47;11.38;;;6.65;;
17983;SDS011;9117;52.420;20.728;2022-08-19T11:39:17;12.02;;;7.00;;
17983;SDS011;9117;52.420;20.728;2022-08-19T11:41:47;15.68;;;7.20;;
17983;SDS011;9117;52.420;20.728;2022-08-19T11:44:15;17.17;;;7.22;;
17983;SDS011;9117;52.420;20.728;2022-08-19T11:46:44;23.95;;;6.93;;
17983;SDS011;9117;52.420;20.728;2022-08-19T11:49:13;13.43;;;7.05;;
17983;SDS011;9117;52.420;20.728;2022-08-19T11:51:43;13.85;;;6.93;;
17983;SDS011;9117;52.420;20.728;2022-08-19T11:54:12;12.52;;;6.40;;
17983;SDS011;9117;52.420;20.728;2022-08-19T11:56:42;17.23;;;6.93;;
17983;SDS011;9117;52.420;20.728;2022-08-19T11:59:11;18.23;;;6.70;;
17983;SDS011;9117;52.420;20.728;2022-08-19T12:01:40;17.25;;;6.60;;
17983;SDS011;9117;52.420;20.728;2022-08-19T12:04:09;13.02;;;6.85;;
17983;SDS011;9117;52.420;20.728;2022-08-19T12:06:39;14.75;;;6.50;;
17983;SDS011;9117;52.420;20.728;2022-08-19T12:09:09;11.02;;;5.97;;
17983;SDS011;9117;52.420;20.728;2022-08-19T12:11:39;10.98;;;7.10;;
17983;SDS011;9117;52.420;20.728;2022-08-19T12:14:09;11.15;;;5.72;;
17983;SDS011;9117;52.420;20.728;2022-08-19T12:16:40;9.75;;;6.32;;
17983;SDS011;9117;52.420;20.728;2022-08-19T12:19:18;16.08;;;6.95;;
17983;SDS011;9117;52.420;20.728;2022-08-19T12:21:48;11.32;;;6.13;;
17983;SDS011;9117;52.420;20.728;2022-08-19T12:24:17;9.35;;;6.03;;
17983;SDS011;9117;52.420;20.728;2022-08-19T12:26:50;11.52;;;6.22;;
17983;SDS011;9117;52.420;20.728;2022-08-19T12:29:20;10.35;;;5.80;;
17983;SDS011;9117;52.420;20.728;2022-08-19T12:31:56;12.20;;;6.03;;
17983;SDS011;9117;52.420;20.728;2022-08-19T12:34:29;15.85;;;6.75;;
17983;SDS011;9117;52.420;20.728;2022-08-19T12:36:59;13.10;;;6.18;;
17983;SDS011;9117;52.420;20.728;2022-08-19T12:39:29;9.25;;;6.05;;
17983;SDS011;9117;52.420;20.728;2022-08-19T12:41:59;13.05;;;6.60;;
17983;SDS011;9117;52.420;20.728;2022-08-19T12:44:27;14.57;;;6.43;;
17983;SDS011;9117;52.420;20.728;2022-08-19T12:46:58;10.70;;;6.03;;
17983;SDS011;9117;52.420;20.728;2022-08-19T12:49:29;8.77;;;6.00;;
17983;SDS011;9117;52.420;20.728;2022-08-19T12:52:19;11.05;;;5.70;;
17983;SDS011;9117;52.420;20.728;2022-08-19T12:54:48;9.70;;;5.57;;
17983;SDS011;9117;52.420;20.728;2022-08-19T12:57:21;12.55;;;6.07;;
17983;SDS011;9117;52.420;20.728;2022-08-19T12:59:59;10.50;;;5.78;;
17983;SDS011;9117;52.420;20.728;2022-08-19T13:02:31;13.93;;;6.10;;
17983;SDS011;9117;52.420;20.728;2022-08-19T13:05:04;9.85;;;5.90;;
17983;SDS011;9117;52.420;20.728;2022-08-19T13:07:34;11.52;;;6.00;;
17983;SDS011;9117;52.420;20.728;2022-08-19T13:10:03;13.05;;;6.00;;
17983;SDS011;9117;52.420;20.728;2022-08-19T13:12:34;12.60;;;6.00;;
17983;SDS011;9117;52.420;20.728;2022-08-19T13:15:02;9.93;;;6.38;;
17983;SDS011;9117;52.420;20.728;2022-08-19T13:17:36;10.75;;;6.25;;
17983;SDS011;9117;52.420;20.728;2022-08-19T13:20:05;16.60;;;6.57;;
17983;SDS011;9117;52.420;20.728;2022-08-19T13:22:34;12.80;;;5.80;;
17983;SDS011;9117;52.420;20.728;2022-08-19T13:25:03;16.58;;;6.45;;
17983;SDS011;9117;52.420;20.728;2022-08-19T13:27:34;9.52;;;5.90;;
17983;SDS011;9117;52.420;20.728;2022-08-19T13:30:03;13.10;;;5.93;;
17983;SDS011;9117;52.420;20.728;2022-08-19T13:32:50;12.38;;;6.50;;
17983;SDS011;9117;52.420;20.728;2022-08-19T13:35:36;7.90;;;5.97;;
17983;SDS011;9117;52.420;20.728;2022-08-19T13:38:04;16.75;;;6.80;;
17983;SDS011;9117;52.420;20.728;2022-08-19T13:40:37;10.57;;;5.65;;
17983;SDS011;9117;52.420;20.728;2022-08-19T13:43:08;12.35;;;6.40;;
17983;SDS011;9117;52.420;20.728;2022-08-19T13:45:48;13.20;;;5.63;;
17983;SDS011;9117;52.420;20.728;2022-08-19T13:48:18;11.27;;;6.20;;
17983;SDS011;9117;52.420;20.728;2022-08-19T13:50:46;11.18;;;5.70;;
17983;SDS011;9117;52.420;20.728;2022-08-19T13:53:14;13.40;;;6.47;;
17983;SDS011;9117;52.420;20.728;2022-08-19T13:55:43;13.05;;;6.18;;
17983;SDS011;9117;52.420;20.728;2022-08-19T13:58:13;9.52;;;5.70;;
17983;SDS011;9117;52.420;20.728;2022-08-19T14:00:42;14.45;;;5.88;;
17983;SDS011;9117;52.420;20.728;2022-08-19T14:03:12;13.50;;;6.18;;
17983;SDS011;9117;52.420;20.728;2022-08-19T14:05:40;10.20;;;5.60;;
17983;SDS011;9117;52.420;20.728;2022-08-19T14:08:08;9.93;;;5.88;;
17983;SDS011;9117;52.420;20.728;2022-08-19T14:10:40;13.02;;;6.07;;
17983;SDS011;9117;52.420;20.728;2022-08-19T14:13:12;9.55;;;5.88;;
17983;SDS011;9117;52.420;20.728;2022-08-19T14:15:43;8.80;;;6.13;;
17983;SDS011;9117;52.420;20.728;2022-08-19T14:18:13;11.95;;;6.28;;
17983;SDS011;9117;52.420;20.728;2022-08-19T14:20:42;15.35;;;6.15;;
17983;SDS011;9117;52.420;20.728;2022-08-19T14:23:11;8.60;;;6.20;;
17983;SDS011;9117;52.420;20.728;2022-08-19T14:25:40;13.23;;;6.32;;
17983;SDS011;9117;52.420;20.728;2022-08-19T14:28:08;11.07;;;6.60;;
17983;SDS011;9117;52.420;20.728;2022-08-19T14:30:37;12.57;;;6.70;;
17983;SDS011;9117;52.420;20.728;2022-08-19T14:33:06;12.10;;;6.65;;
17983;SDS011;9117;52.420;20.728;2022-08-19T14:35:35;11.63;;;6.10;;
17983;SDS011;9117;52.420;20.728;2022-08-19T14:38:04;12.27;;;5.72;;
17983;SDS011;9117;52.420;20.728;2022-08-19T14:40:34;11.80;;;6.18;;
17983;SDS011;9117;52.420;20.728;2022-08-19T14:43:03;10.27;;;5.93;;
17983;SDS011;9117;52.420;20.728;2022-08-19T14:45:32;12.43;;;6.43;;
17983;SDS011;9117;52.420;20.728;2022-08-19T14:48:05;12.27;;;5.80;;
17983;SDS011;9117;52.420;20.728;2022-08-19T14:50:44;11.35;;;5.47;;
17983;SDS011;9117;52.420;20.728;2022-08-19T14:53:12;10.15;;;5.70;;